createdAt,value
2024-03-08T00:00:35.098Z,-2.21
2024-03-08T00:03:05.744Z,-2.20
2024-03-08T00:05:34.050Z,-2.24
2024-03-08T00:08:02.514Z,-2.73
2024-03-08T00:10:30.799Z,-2.32
2024-03-08T00:12:59.852Z,-2.50
2024-03-08T00:15:30.877Z,-2.68
2024-03-08T00:17:59.225Z,-2.52
2024-03-08T00:20:29.075Z,-2.27
2024-03-08T00:22:58.934Z,-2.26
2024-03-08T00:25:27.253Z,-2.26
2024-03-08T00:27:57.061Z,-2.42
2024-03-08T00:30:26.353Z,-2.33
2024-03-08T00:32:54.840Z,-2.65
2024-03-08T00:35:23.844Z,-2.94
2024-03-08T00:37:53.412Z,-2.59
2024-03-08T00:40:21.739Z,-2.83
2024-03-08T00:42:51.023Z,-2.90
2024-03-08T00:45:19.289Z,-3.09
2024-03-08T00:47:47.636Z,-3.00
2024-03-08T00:50:15.930Z,-3.03
2024-03-08T00:52:44.260Z,-2.84
2024-03-08T00:55:13.920Z,-2.88
2024-03-08T00:57:43.314Z,-2.85
2024-03-08T01:00:13.881Z,-2.88
2024-03-08T01:02:42.549Z,-2.70
2024-03-08T01:05:10.962Z,-2.77
2024-03-08T01:07:39.302Z,-2.64
2024-03-08T01:10:10.683Z,-2.63
2024-03-08T01:12:41.321Z,-2.79
2024-03-08T01:15:10.368Z,-2.66
2024-03-08T01:17:39.839Z,-2.65
2024-03-08T01:20:12.166Z,-2.73
2024-03-08T01:22:40.665Z,-2.79
2024-03-08T01:25:09.807Z,-2.82
2024-03-08T01:27:38.166Z,-2.70
2024-03-08T01:30:10.648Z,-2.79
2024-03-08T01:32:39.450Z,-2.86
2024-03-08T01:35:10.644Z,-2.81
2024-03-08T01:37:39.030Z,-2.72
2024-03-08T01:40:09.673Z,-2.87
2024-03-08T01:42:38.800Z,-2.84
2024-03-08T01:45:09.624Z,-2.97
2024-03-08T01:47:39.290Z,-2.92
2024-03-08T01:50:09.421Z,-3.04
2024-03-08T01:52:38.224Z,-3.02
2024-03-08T01:55:08.911Z,-3.13
2024-03-08T01:57:39.186Z,-3.19
2024-03-08T02:00:11.829Z,-3.25
2024-03-08T02:02:45.484Z,-3.43
2024-03-08T02:05:14.750Z,-3.23
2024-03-08T02:07:44.992Z,-3.10
2024-03-08T02:10:13.576Z,-3.08
2024-03-08T02:12:41.881Z,-3.11
2024-03-08T02:15:11.974Z,-3.18
2024-03-08T02:17:40.719Z,-3.16
2024-03-08T02:20:11.061Z,-3.37
2024-03-08T02:22:40.837Z,-3.16
2024-03-08T02:25:10.681Z,-3.27
2024-03-08T02:27:38.941Z,-3.11
2024-03-08T02:30:08.569Z,-2.99
2024-03-08T02:32:37.060Z,-3.02
2024-03-08T02:35:07.410Z,-3.43
2024-03-08T02:37:36.874Z,-3.54
2024-03-08T02:40:08.547Z,-3.37
2024-03-08T02:42:36.771Z,-3.34
2024-03-08T02:45:06.941Z,-3.38
2024-03-08T02:47:36.294Z,-3.33
2024-03-08T02:50:05.050Z,-3.26
2024-03-08T02:52:33.324Z,-3.24
2024-03-08T02:55:01.640Z,-3.15
2024-03-08T02:57:31.209Z,-3.31
2024-03-08T03:00:00.823Z,-3.32
2024-03-08T03:02:29.213Z,-3.66
2024-03-08T03:04:57.879Z,-3.57
2024-03-08T03:07:28.735Z,-3.63
2024-03-08T03:09:57.133Z,-3.51
2024-03-08T03:12:25.572Z,-3.39
2024-03-08T03:14:55.206Z,-3.26
2024-03-08T03:17:23.543Z,-3.30
2024-03-08T03:19:53.043Z,-3.31
2024-03-08T03:22:21.842Z,-3.28
2024-03-08T03:24:50.540Z,-3.39
2024-03-08T03:27:19.197Z,-3.57
2024-03-08T03:29:47.555Z,-3.86
2024-03-08T03:32:19.638Z,-3.77
2024-03-08T03:34:47.890Z,-3.76
2024-03-08T03:37:16.117Z,-3.94
2024-03-08T03:39:49.932Z,-3.52
2024-03-08T03:42:19.061Z,-3.38
2024-03-08T03:44:48.263Z,-3.44
2024-03-08T03:47:18.156Z,-3.58
2024-03-08T03:49:46.795Z,-3.29
2024-03-08T03:52:14.996Z,-3.33
2024-03-08T03:54:43.432Z,-3.31
2024-03-08T03:57:12.848Z,-3.50
2024-03-08T03:59:42.613Z,-3.50
2024-03-08T04:02:10.838Z,-3.44
2024-03-08T04:04:40.398Z,-3.51
2024-03-08T04:07:09.127Z,-3.40
2024-03-08T04:09:37.440Z,-3.39
2024-03-08T04:12:06.170Z,-3.54
2024-03-08T04:14:35.630Z,-3.66
2024-03-08T04:17:04.482Z,-3.85
2024-03-08T04:19:32.735Z,-3.75
2024-03-08T04:22:02.436Z,-3.77
2024-03-08T04:24:31.968Z,-3.71
2024-03-08T04:27:01.525Z,-3.67
2024-03-08T04:29:29.770Z,-3.81
2024-03-08T04:31:58.043Z,-3.96
2024-03-08T04:34:26.252Z,-4.02
2024-03-08T04:36:54.619Z,-3.99
2024-03-08T04:39:24.347Z,-3.97
2024-03-08T04:41:53.124Z,-3.89
2024-03-08T04:44:21.403Z,-3.82
2024-03-08T04:46:50.257Z,-3.62
2024-03-08T04:49:18.635Z,-3.93
2024-03-08T04:51:47.242Z,-3.60
2024-03-08T04:54:15.590Z,-3.95
2024-03-08T04:56:45.281Z,-3.78
2024-03-08T04:59:14.738Z,-3.72
2024-03-08T05:01:43.037Z,-3.69
2024-03-08T05:04:11.222Z,-3.51
2024-03-08T05:06:39.682Z,-3.69
2024-03-08T05:09:14.870Z,-3.71
2024-03-08T05:11:45.616Z,-3.88
2024-03-08T05:14:17.732Z,-3.81
2024-03-08T05:16:49.719Z,-3.80
2024-03-08T05:19:18.927Z,-3.68
2024-03-08T05:21:47.833Z,-3.87
2024-03-08T05:24:17.870Z,-3.65
2024-03-08T05:26:48.860Z,-3.70
2024-03-08T05:29:17.382Z,-3.63
2024-03-08T05:31:50.164Z,-3.68
2024-03-08T05:34:20.522Z,-3.92
2024-03-08T05:36:50.516Z,-3.85
2024-03-08T05:39:19.596Z,-3.70
2024-03-08T05:41:49.596Z,-3.83
2024-03-08T05:44:18.852Z,-4.18
2024-03-08T05:46:47.613Z,-4.21
2024-03-08T05:49:16.423Z,-3.95
2024-03-08T05:51:44.809Z,-3.61
2024-03-08T05:54:16.273Z,-3.57
2024-03-08T05:56:46.834Z,-3.46
2024-03-08T05:59:16.585Z,-3.33
2024-03-08T06:01:44.866Z,-3.26
2024-03-08T06:04:13.556Z,-3.58
2024-03-08T06:06:42.525Z,-3.66
2024-03-08T06:09:13.500Z,-3.49
2024-03-08T06:11:43.875Z,-3.41
2024-03-08T06:14:12.371Z,-3.40
2024-03-08T06:16:41.976Z,-3.22
2024-03-08T06:19:10.170Z,-2.99
2024-03-08T06:21:38.543Z,-2.86
2024-03-08T06:24:07.502Z,-2.76
2024-03-08T06:26:38.027Z,-2.47
2024-03-08T06:29:08.345Z,-2.47
2024-03-08T06:31:40.077Z,-2.32
2024-03-08T06:34:10.562Z,-2.22
2024-03-08T06:36:39.280Z,-2.10
2024-03-08T06:39:11.039Z,-1.94
2024-03-08T06:41:39.976Z,-1.86
2024-03-08T06:44:09.205Z,-1.81
2024-03-08T06:46:37.659Z,-1.58
2024-03-08T06:49:06.099Z,-1.61
2024-03-08T06:51:35.709Z,-1.43
2024-03-08T06:54:09.817Z,-1.37
2024-03-08T06:56:39.923Z,-1.21
2024-03-08T06:59:13.917Z,-1.22
2024-03-08T07:01:42.623Z,-0.97
2024-03-08T07:04:12.938Z,-0.82
2024-03-08T07:06:42.987Z,-0.96
2024-03-08T07:09:12.217Z,-0.93
2024-03-08T07:11:44.033Z,-1.01
2024-03-08T07:14:17.069Z,-0.84
2024-03-08T07:16:45.934Z,-1.12
2024-03-08T07:19:14.328Z,-0.81
2024-03-08T07:21:43.941Z,-0.78
2024-03-08T07:24:28.835Z,-0.70
2024-03-08T07:26:57.292Z,-0.43
2024-03-08T07:29:25.543Z,-0.41
2024-03-08T07:32:03.476Z,-0.30
2024-03-08T07:34:33.257Z,-0.19
2024-03-08T07:37:04.038Z,-0.20
2024-03-08T07:39:33.309Z,0.04
2024-03-08T07:42:01.916Z,0.13
2024-03-08T07:44:30.875Z,0.20
2024-03-08T07:46:59.771Z,0.27
2024-03-08T07:49:28.062Z,0.43
2024-03-08T07:51:56.326Z,0.37
2024-03-08T07:54:27.201Z,0.47
2024-03-08T07:56:55.672Z,0.65
2024-03-08T07:59:23.876Z,0.88
2024-03-08T08:01:52.181Z,0.81
2024-03-08T08:04:25.735Z,0.90
2024-03-08T08:06:55.985Z,1.21
2024-03-08T08:09:35.291Z,1.18
2024-03-08T08:12:05.083Z,1.36
2024-03-08T08:14:33.295Z,1.36
2024-03-08T08:17:04.905Z,1.47
2024-03-08T08:19:34.475Z,1.54
2024-03-08T08:22:03.099Z,1.57
2024-03-08T08:24:31.377Z,1.79
2024-03-08T08:27:00.726Z,1.80
2024-03-08T08:29:31.213Z,1.55
2024-03-08T08:32:01.704Z,1.86
2024-03-08T08:34:31.315Z,1.95
2024-03-08T08:36:59.740Z,1.95
2024-03-08T08:39:27.970Z,2.09
2024-03-08T08:41:56.452Z,2.10
2024-03-08T08:44:24.983Z,2.55
2024-03-08T08:46:57.703Z,2.71
2024-03-08T08:49:31.823Z,2.61
2024-03-08T08:52:06.739Z,3.05
2024-03-08T08:54:40.583Z,3.27
2024-03-08T08:57:08.984Z,3.32
2024-03-08T08:59:37.888Z,3.11
2024-03-08T09:02:07.792Z,3.19
2024-03-08T09:04:36.808Z,3.20
2024-03-08T09:07:07.576Z,3.18
2024-03-08T09:09:36.163Z,3.02
2024-03-08T09:12:04.758Z,3.47
2024-03-08T09:14:32.964Z,3.39
2024-03-08T09:17:01.218Z,3.64
2024-03-08T09:19:30.923Z,3.83
2024-03-08T09:21:59.275Z,3.85
2024-03-08T09:24:27.538Z,4.07
2024-03-08T09:26:56.352Z,4.11
2024-03-08T09:29:24.911Z,4.31
2024-03-08T09:31:53.218Z,4.46
2024-03-08T09:34:25.539Z,4.59
2024-03-08T09:36:59.041Z,4.36
2024-03-08T09:39:27.875Z,4.38
2024-03-08T09:41:56.499Z,4.26
2024-03-08T09:44:28.599Z,4.68
2024-03-08T09:46:59.452Z,4.76
2024-03-08T09:49:27.916Z,4.40
2024-03-08T09:51:58.373Z,4.72
2024-03-08T09:54:27.938Z,4.91
2024-03-08T09:56:56.723Z,4.86
2024-03-08T09:59:44.472Z,4.71
2024-03-08T10:02:17.186Z,4.88
2024-03-08T10:04:48.339Z,5.10
2024-03-08T10:07:18.043Z,5.25
2024-03-08T10:09:51.439Z,5.33
2024-03-08T10:12:20.626Z,5.04
2024-03-08T10:14:49.081Z,4.97
2024-03-08T10:17:17.472Z,5.31
2024-03-08T10:19:55.774Z,5.51
2024-03-08T10:22:27.305Z,5.82
2024-03-08T10:24:55.724Z,5.86
2024-03-08T10:27:24.008Z,5.95
2024-03-08T10:29:53.374Z,5.57
2024-03-08T10:32:21.921Z,5.70
2024-03-08T10:34:51.449Z,5.65
2024-03-08T10:37:25.821Z,5.70
2024-03-08T10:40:11.608Z,5.94
2024-03-08T10:42:43.317Z,6.39
2024-03-08T10:45:22.571Z,5.94
2024-03-08T10:47:56.077Z,6.39
2024-03-08T10:50:26.334Z,6.13
2024-03-08T10:52:59.054Z,6.35
2024-03-08T10:55:30.085Z,6.19
2024-03-08T10:57:58.286Z,6.50
2024-03-08T11:00:28.142Z,6.38
2024-03-08T11:02:56.641Z,6.42
2024-03-08T11:05:40.869Z,6.33
2024-03-08T11:08:21.526Z,6.41
2024-03-08T11:10:53.084Z,6.35
2024-03-08T11:13:37.960Z,6.32
2024-03-08T11:16:10.440Z,6.44
2024-03-08T11:18:39.629Z,6.50
2024-03-08T11:21:13.642Z,6.96
2024-03-08T11:23:44.212Z,6.62
2024-03-08T11:26:22.526Z,6.83
2024-03-08T11:28:53.169Z,7.06
2024-03-08T11:31:27.049Z,6.68
2024-03-08T11:33:55.974Z,6.66
2024-03-08T11:36:25.627Z,6.61
2024-03-08T11:38:57.198Z,7.09
2024-03-08T11:41:26.704Z,6.93
2024-03-08T11:44:06.253Z,7.20
2024-03-08T11:46:34.809Z,7.05
2024-03-08T11:49:04.564Z,6.62
2024-03-08T11:51:34.349Z,7.22
2024-03-08T11:54:04.833Z,7.01
2024-03-08T11:56:33.391Z,7.00
2024-03-08T11:59:03.055Z,6.94
2024-03-08T12:01:32.363Z,7.09
2024-03-08T12:04:01.776Z,7.56
2024-03-08T12:06:40.379Z,7.17
2024-03-08T12:09:12.367Z,7.10
2024-03-08T12:11:41.138Z,7.36
2024-03-08T12:14:09.816Z,7.51
2024-03-08T12:16:38.746Z,7.38
2024-03-08T12:19:07.752Z,7.28
2024-03-08T12:21:37.257Z,7.14
2024-03-08T12:24:09.612Z,7.48
2024-03-08T12:26:41.260Z,7.71
2024-03-08T12:29:23.488Z,7.18
2024-03-08T12:31:54.886Z,7.09
2024-03-08T12:34:23.676Z,7.17
2024-03-08T12:36:55.148Z,7.36
2024-03-08T12:39:28.285Z,7.41
2024-03-08T12:41:59.188Z,7.57
2024-03-08T12:44:29.411Z,7.65
2024-03-08T12:47:00.159Z,7.60
2024-03-08T12:49:28.877Z,7.67
2024-03-08T12:51:57.166Z,7.91
2024-03-08T12:54:25.826Z,7.47
2024-03-08T12:56:55.927Z,7.56
2024-03-08T12:59:25.993Z,7.66
2024-03-08T13:01:54.995Z,7.51
2024-03-08T13:04:23.844Z,7.95
2024-03-08T13:06:55.080Z,7.94
2024-03-08T13:09:25.382Z,8.50
2024-03-08T13:11:56.063Z,8.77
2024-03-08T13:14:26.024Z,8.37
2024-03-08T13:16:56.142Z,8.56
2024-03-08T13:19:25.082Z,8.11
2024-03-08T13:21:54.549Z,8.12
2024-03-08T13:24:23.137Z,7.93
2024-03-08T13:26:51.397Z,8.17
2024-03-08T13:29:20.336Z,8.42
2024-03-08T13:31:53.155Z,8.69
2024-03-08T13:34:29.130Z,8.41
2024-03-08T13:37:01.627Z,8.30
2024-03-08T13:39:32.260Z,8.07
2024-03-08T13:42:00.505Z,8.20
2024-03-08T13:44:28.978Z,8.26
2024-03-08T13:46:59.235Z,8.33
2024-03-08T13:49:27.781Z,8.14
2024-03-08T13:51:56.557Z,8.42
2024-03-08T13:54:24.760Z,8.27
2024-03-08T13:56:55.235Z,8.49
2024-03-08T13:59:24.258Z,8.22
2024-03-08T14:01:52.712Z,8.60
2024-03-08T14:04:22.665Z,8.51
2024-03-08T14:06:52.576Z,8.82
2024-03-08T14:09:20.948Z,8.41
2024-03-08T14:11:49.213Z,8.27
2024-03-08T14:14:18.917Z,8.66
2024-03-08T14:16:47.137Z,8.35
2024-03-08T14:19:16.380Z,8.43
2024-03-08T14:21:45.952Z,8.50
2024-03-08T14:24:14.163Z,8.23
2024-03-08T14:26:43.236Z,8.17
2024-03-08T14:29:12.046Z,8.21
2024-03-08T14:31:41.991Z,8.36
2024-03-08T14:34:10.247Z,8.53
2024-03-08T14:36:39.293Z,8.39
2024-03-08T14:39:09.497Z,8.45
2024-03-08T14:41:37.823Z,8.46
2024-03-08T14:44:06.381Z,8.54
2024-03-08T14:46:34.701Z,8.50
2024-03-08T14:49:02.943Z,8.34
2024-03-08T14:51:32.703Z,8.22
2024-03-08T14:54:00.901Z,8.18
2024-03-08T14:56:32.382Z,8.29
2024-03-08T14:59:00.979Z,8.12
2024-03-08T15:01:30.563Z,8.24
2024-03-08T15:04:04.148Z,8.29
2024-03-08T15:06:32.608Z,8.11
2024-03-08T15:09:00.876Z,8.01
2024-03-08T15:11:30.629Z,8.13
2024-03-08T15:13:59.667Z,8.06
2024-03-08T15:16:28.000Z,8.18
2024-03-08T15:18:56.218Z,8.20
2024-03-08T15:21:26.955Z,8.05
2024-03-08T15:23:55.661Z,8.08
2024-03-08T15:26:24.059Z,8.04
2024-03-08T15:28:55.367Z,7.97
2024-03-08T15:31:25.928Z,8.02
2024-03-08T15:34:01.584Z,7.88
2024-03-08T15:36:32.087Z,7.78
2024-03-08T15:39:00.455Z,7.83
2024-03-08T15:41:30.755Z,7.70
2024-03-08T15:44:01.084Z,7.67
2024-03-08T15:46:29.622Z,7.68
2024-03-08T15:48:58.133Z,7.60
2024-03-08T15:51:27.338Z,7.56
2024-03-08T15:53:56.865Z,7.70
2024-03-08T15:56:25.651Z,7.81
2024-03-08T15:58:54.366Z,8.04
2024-03-08T16:01:26.041Z,7.82
2024-03-08T16:03:55.933Z,8.17
2024-03-08T16:06:25.772Z,7.95
2024-03-08T16:08:54.102Z,8.00
2024-03-08T16:11:24.183Z,8.06
2024-03-08T16:13:52.599Z,7.97
2024-03-08T16:16:21.267Z,7.58
2024-03-08T16:18:50.873Z,7.60
2024-03-08T16:21:19.090Z,7.38
2024-03-08T16:23:49.745Z,7.42
2024-03-08T16:26:19.015Z,7.12
2024-03-08T16:28:47.316Z,6.91
2024-03-08T16:31:16.178Z,6.80
2024-03-08T16:33:46.069Z,6.61
2024-03-08T16:36:16.321Z,6.32
2024-03-08T16:38:46.416Z,6.19
2024-03-08T16:41:15.682Z,5.91
2024-03-08T16:43:45.672Z,5.71
2024-03-08T16:46:14.584Z,5.77
2024-03-08T16:48:43.389Z,5.73
2024-03-08T16:51:12.354Z,5.49
2024-03-08T16:53:43.290Z,5.40
2024-03-08T16:56:13.683Z,5.31
2024-03-08T16:58:44.203Z,5.22
2024-03-08T17:01:13.109Z,5.04
2024-03-08T17:03:48.211Z,5.10
2024-03-08T17:06:25.015Z,4.93
2024-03-08T17:08:55.002Z,4.69
2024-03-08T17:11:23.415Z,4.80
2024-03-08T17:13:51.880Z,4.58
2024-03-08T17:16:25.537Z,4.43
2024-03-08T17:18:54.377Z,4.06
2024-03-08T17:21:22.587Z,4.38
2024-03-08T17:23:50.890Z,4.20
2024-03-08T17:26:21.003Z,3.91
2024-03-08T17:28:49.424Z,3.81
2024-03-08T17:31:17.817Z,3.67
2024-03-08T17:33:46.336Z,3.85
2024-03-08T17:36:17.450Z,3.77
2024-03-08T17:38:49.156Z,3.56
2024-03-08T17:41:24.539Z,3.61
2024-03-08T17:43:52.765Z,3.47
2024-03-08T17:46:21.460Z,3.49
2024-03-08T17:48:49.803Z,3.61
2024-03-08T17:51:18.025Z,3.63
2024-03-08T17:53:47.557Z,3.75
2024-03-08T17:56:16.428Z,3.57
2024-03-08T17:58:46.258Z,3.49
2024-03-08T18:01:14.899Z,3.47
2024-03-08T18:03:43.378Z,3.23
2024-03-08T18:06:11.588Z,3.33
2024-03-08T18:08:39.821Z,3.26
2024-03-08T18:11:09.383Z,3.48
2024-03-08T18:13:37.875Z,3.41
2024-03-08T18:16:08.810Z,3.47
2024-03-08T18:18:38.110Z,3.49
2024-03-08T18:21:07.459Z,3.46
2024-03-08T18:23:35.833Z,3.47
2024-03-08T18:26:04.730Z,3.51
2024-03-08T18:28:33.192Z,3.45
2024-03-08T18:31:01.744Z,3.44
2024-03-08T18:33:33.837Z,3.39
2024-03-08T18:36:02.413Z,3.16
2024-03-08T18:38:30.850Z,3.11
2024-03-08T18:40:59.768Z,3.20
2024-03-08T18:43:29.286Z,3.33
2024-03-08T18:45:58.667Z,3.17
2024-03-08T18:48:28.758Z,3.11
2024-03-08T18:51:00.296Z,3.30
2024-03-08T18:53:29.794Z,3.14
2024-03-08T18:55:58.192Z,3.16
2024-03-08T18:58:31.092Z,3.12
2024-03-08T19:01:07.375Z,3.18
2024-03-08T19:03:35.811Z,2.94
2024-03-08T19:06:05.902Z,2.89
2024-03-08T19:08:34.529Z,2.93
2024-03-08T19:11:04.906Z,3.00
2024-03-08T19:13:34.160Z,2.81
2024-03-08T19:16:02.392Z,2.69
2024-03-08T19:18:30.981Z,2.56
2024-03-08T19:20:59.700Z,2.34
2024-03-08T19:23:32.227Z,2.38
2024-03-08T19:26:00.714Z,2.38
2024-03-08T19:28:29.504Z,2.27
2024-03-08T19:30:59.023Z,2.32
2024-03-08T19:33:31.199Z,2.27
2024-03-08T19:36:01.581Z,2.15
2024-03-08T19:38:32.416Z,1.87
2024-03-08T19:41:00.680Z,1.72
2024-03-08T19:43:29.324Z,1.60
2024-03-08T19:45:59.251Z,1.56
2024-03-08T19:48:27.583Z,1.69
2024-03-08T19:50:56.690Z,1.78
2024-03-08T19:53:24.932Z,1.74
2024-03-08T19:55:58.705Z,1.86
2024-03-08T19:58:28.030Z,1.71
2024-03-08T20:00:56.961Z,1.60
2024-03-08T20:03:26.205Z,1.73
2024-03-08T20:05:56.380Z,1.87
2024-03-08T20:08:29.931Z,1.95
2024-03-08T20:11:04.846Z,1.90
2024-03-08T20:13:35.919Z,1.79
2024-03-08T20:16:05.887Z,1.74
2024-03-08T20:18:36.192Z,1.76
2024-03-08T20:21:05.383Z,1.59
2024-03-08T20:23:33.635Z,1.61
2024-03-08T20:26:11.848Z,1.57
2024-03-08T20:28:43.300Z,1.38
2024-03-08T20:31:13.560Z,1.11
2024-03-08T20:33:43.969Z,1.08
2024-03-08T20:36:11.961Z,1.10
2024-03-08T20:38:41.686Z,0.91
2024-03-08T20:41:12.739Z,0.72
2024-03-08T20:43:43.037Z,0.80
2024-03-08T20:46:11.932Z,0.88
2024-03-08T20:48:46.405Z,0.91
2024-03-08T20:51:14.979Z,0.89
2024-03-08T20:53:44.147Z,0.81
2024-03-08T20:56:16.385Z,0.90
2024-03-08T20:58:44.948Z,0.94
2024-03-08T21:01:16.203Z,0.65
2024-03-08T21:03:44.520Z,0.45
2024-03-08T21:06:12.763Z,0.62
2024-03-08T21:08:42.642Z,0.45
2024-03-08T21:11:11.421Z,0.45
2024-03-08T21:13:41.262Z,0.39
2024-03-08T21:16:10.475Z,0.30
2024-03-08T21:18:39.933Z,0.31
2024-03-08T21:21:08.302Z,0.22
2024-03-08T21:23:37.306Z,0.30
2024-03-08T21:26:09.849Z,0.44
2024-03-08T21:28:39.362Z,0.10
2024-03-08T21:31:10.151Z,0.24
2024-03-08T21:33:38.904Z,0.40
2024-03-08T21:36:09.193Z,0.26
2024-03-08T21:38:38.370Z,0.16
2024-03-08T21:41:10.077Z,-0.03
2024-03-08T21:43:38.560Z,0.30
2024-03-08T21:46:07.442Z,0.14
2024-03-08T21:48:37.064Z,0.37
2024-03-08T21:51:06.907Z,0.38
2024-03-08T21:53:38.422Z,0.31
2024-03-08T21:56:12.187Z,0.28
2024-03-08T21:58:41.606Z,0.31
2024-03-08T22:01:11.186Z,0.18
2024-03-08T22:03:40.947Z,0.28
2024-03-08T22:06:12.406Z,0.27
2024-03-08T22:08:42.940Z,0.16
2024-03-08T22:11:13.066Z,0.22
2024-03-08T22:13:42.795Z,0.07
2024-03-08T22:16:11.896Z,0.34
2024-03-08T22:18:41.621Z,0.37
2024-03-08T22:21:11.282Z,0.39
2024-03-08T22:23:39.754Z,0.47
2024-03-08T22:26:11.332Z,0.44
2024-03-08T22:28:42.527Z,0.51
2024-03-08T22:31:11.011Z,0.45
2024-03-08T22:33:40.283Z,0.46
2024-03-08T22:36:10.271Z,0.25
2024-03-08T22:38:38.786Z,0.30
2024-03-08T22:41:11.400Z,0.69
2024-03-08T22:43:42.086Z,0.45
2024-03-08T22:46:11.400Z,0.36
2024-03-08T22:48:41.876Z,0.43
2024-03-08T22:51:13.287Z,0.39
2024-03-08T22:53:45.059Z,0.11
2024-03-08T22:56:14.886Z,0.06
2024-03-08T22:58:45.004Z,0.18
2024-03-08T23:01:17.074Z,0.08
2024-03-08T23:03:46.963Z,0.08
2024-03-08T23:06:22.287Z,0.08
2024-03-08T23:08:52.152Z,0.26
2024-03-08T23:11:23.494Z,0.10
2024-03-08T23:13:52.021Z,0.05
2024-03-08T23:16:21.474Z,0.15
2024-03-08T23:18:50.121Z,-0.13
2024-03-08T23:21:20.146Z,-0.21
2024-03-08T23:23:51.207Z,-0.21
2024-03-08T23:26:19.795Z,-0.23
2024-03-08T23:28:48.739Z,-0.19
2024-03-08T23:31:17.366Z,-0.74
2024-03-08T23:33:47.725Z,-0.74
2024-03-08T23:36:16.829Z,-0.87
2024-03-08T23:38:49.120Z,-0.65
2024-03-08T23:41:17.434Z,-0.69
2024-03-08T23:43:45.798Z,-0.60
2024-03-08T23:46:15.048Z,-0.63
2024-03-08T23:48:44.819Z,-0.71
2024-03-08T23:51:13.903Z,-0.57
2024-03-08T23:53:42.500Z,-0.38
2024-03-08T23:56:12.617Z,-0.69
2024-03-08T23:58:42.153Z,-0.45
